createdAt,value
2023-01-18T00:02:27.626Z,98028.88
2023-01-18T00:05:29.910Z,98027.19
2023-01-18T00:08:32.535Z,98028.88
2023-01-18T00:11:34.039Z,98028.25
2023-01-18T00:14:35.492Z,98028.25
2023-01-18T00:17:47.639Z,98014.91
2023-01-18T00:20:49.259Z,98016.81
2023-01-18T00:23:51.213Z,98015.16
2023-01-18T00:26:52.712Z,98008.06
2023-01-18T00:29:54.230Z,98011.81
2023-01-18T00:32:58.026Z,98012.63
2023-01-18T00:36:02.108Z,98018.06
2023-01-18T00:39:04.588Z,98011.00
2023-01-18T00:42:24.752Z,98006.84
2023-01-18T00:45:26.379Z,98011.63
2023-01-18T00:48:27.980Z,98015.34
2023-01-18T00:51:29.471Z,98013.66
2023-01-18T00:54:30.927Z,98012.84
2023-01-18T00:57:32.413Z,98017.44
2023-01-18T01:00:34.410Z,98002.84
2023-01-18T01:03:55.535Z,98003.91
2023-01-18T01:06:56.995Z,98007.63
2023-01-18T01:09:58.518Z,98008.44
2023-01-18T01:13:19.081Z,98012.22
2023-01-18T01:16:39.515Z,98011.38
2023-01-18T01:19:59.332Z,98011.38
2023-01-18T01:23:30.880Z,98020.13
2023-01-18T01:26:32.368Z,98023.25
2023-01-18T01:29:33.875Z,98027.81
2023-01-18T01:32:35.387Z,98018.25
2023-01-18T01:35:36.849Z,98027.19
2023-01-18T01:38:38.821Z,98024.72
2023-01-18T01:41:40.406Z,98021.19
2023-01-18T01:44:51.882Z,98025.75
2023-01-18T01:47:55.782Z,98025.16
2023-01-18T01:50:57.324Z,98014.53
2023-01-18T01:54:02.694Z,98026.16
2023-01-18T01:57:10.849Z,98028.06
2023-01-18T02:00:24.079Z,98028.06
2023-01-18T02:03:25.859Z,98035.34
2023-01-18T02:06:33.631Z,98039.69
2023-01-18T02:09:35.155Z,98043.47
2023-01-18T02:12:39.946Z,98034.50
2023-01-18T02:15:54.476Z,98041.56
2023-01-18T02:19:15.668Z,98038.88
2023-01-18T02:22:38.388Z,98045.09
2023-01-18T02:26:01.737Z,98049.69
2023-01-18T02:29:19.386Z,98044.47
2023-01-18T02:32:37.840Z,98049.88
2023-01-18T02:35:48.526Z,98053.44
2023-01-18T02:38:57.396Z,98052.81
2023-01-18T02:42:29.731Z,98048.44
2023-01-18T02:45:54.673Z,98055.94
2023-01-18T02:48:58.343Z,98060.50
2023-01-18T02:52:04.950Z,98056.16
2023-01-18T02:55:09.982Z,98058.84
2023-01-18T02:58:32.351Z,98064.25
2023-01-18T03:01:56.897Z,98066.97
2023-01-18T03:04:58.606Z,98069.88
2023-01-18T03:08:14.209Z,98075.09
2023-01-18T03:11:49.613Z,98067.78
2023-01-18T03:15:05.622Z,98081.31
2023-01-18T03:19:00.238Z,98072.38
2023-01-18T03:22:02.995Z,98073.44
2023-01-18T03:25:05.136Z,98069.88
2023-01-18T03:28:29.955Z,98078.00
2023-01-18T03:32:08.793Z,98076.13
2023-01-18T03:35:16.394Z,98081.75
2023-01-18T03:38:18.893Z,98079.47
2023-01-18T03:41:24.741Z,98081.34
2023-01-18T03:44:31.183Z,98081.53
2023-01-18T03:47:32.900Z,98080.72
2023-01-18T03:50:50.275Z,98081.34
2023-01-18T03:54:04.569Z,98079.47
2023-01-18T03:57:12.240Z,98074.06
2023-01-18T04:00:14.697Z,98082.16
2023-01-18T04:03:16.142Z,98083.81
2023-01-18T04:06:17.775Z,98085.50
2023-01-18T04:09:19.267Z,98090.69
2023-01-18T04:12:20.772Z,98085.91
2023-01-18T04:15:22.357Z,98094.44
2023-01-18T04:18:23.921Z,98086.94
2023-01-18T04:21:25.420Z,98091.09
2023-01-18T04:24:26.917Z,98096.31
2023-01-18T04:27:28.373Z,98099.84
2023-01-18T04:30:29.933Z,98099.03
2023-01-18T04:33:31.393Z,98105.47
2023-01-18T04:36:32.925Z,98115.25
2023-01-18T04:39:34.463Z,98117.97
2023-01-18T04:42:35.902Z,98121.31
2023-01-18T04:45:38.187Z,98124.59
2023-01-18T04:48:39.863Z,98131.72
2023-01-18T04:51:42.866Z,98128.78
2023-01-18T04:54:44.355Z,98135.03
2023-01-18T04:57:46.044Z,98129.63
2023-01-18T05:00:47.699Z,98132.34
2023-01-18T05:03:49.405Z,98134.19
2023-01-18T05:06:51.228Z,98139.81
2023-01-18T05:09:52.708Z,98133.59
2023-01-18T05:12:54.228Z,98147.13
2023-01-18T05:15:56.602Z,98153.78
2023-01-18T05:18:58.065Z,98151.25
2023-01-18T05:21:59.685Z,98156.88
2023-01-18T05:25:01.833Z,98161.69
2023-01-18T05:28:03.378Z,98157.28
2023-01-18T05:31:04.890Z,98161.03
2023-01-18T05:34:06.690Z,98164.78
2023-01-18T05:37:08.512Z,98170.41
2023-01-18T05:40:11.330Z,98169.59
2023-01-18T05:43:12.868Z,98177.06
2023-01-18T05:46:14.392Z,98179.13
2023-01-18T05:49:15.986Z,98181.84
2023-01-18T05:52:17.747Z,98180.19
2023-01-18T05:55:19.245Z,98184.53
2023-01-18T05:58:20.747Z,98189.97
2023-01-18T06:01:22.283Z,98186.19
2023-01-18T06:04:23.816Z,98181.66
2023-01-18T06:07:25.279Z,98195.78
2023-01-18T06:10:26.734Z,98194.53
2023-01-18T06:13:30.835Z,98200.56
2023-01-18T06:16:32.433Z,98203.28
2023-01-18T06:19:33.932Z,98202.88
2023-01-18T06:22:35.527Z,98214.97
2023-01-18T06:25:37.085Z,98212.88
2023-01-18T06:28:38.646Z,98220.78
2023-01-18T06:31:40.162Z,98225.16
2023-01-18T06:34:41.929Z,98223.28
2023-01-18T06:37:44.947Z,98228.50
2023-01-18T06:40:46.438Z,98226.00
2023-01-18T06:43:50.019Z,98230.34
2023-01-18T06:46:52.053Z,98242.25
2023-01-18T06:49:53.543Z,98241.41
2023-01-18T06:52:56.028Z,98246.00
2023-01-18T06:55:59.901Z,98247.84
2023-01-18T06:59:01.757Z,98258.88
2023-01-18T07:02:04.838Z,98258.25
2023-01-18T07:05:06.628Z,98275.53
2023-01-18T07:08:08.091Z,98278.44
2023-01-18T07:11:11.958Z,98283.03
2023-01-18T07:14:13.566Z,98291.34
2023-01-18T07:17:15.184Z,98291.56
2023-01-18T07:20:16.922Z,98296.09
2023-01-18T07:23:18.452Z,98298.81
2023-01-18T07:26:19.911Z,98315.03
2023-01-18T07:29:22.349Z,98316.91
2023-01-18T07:32:23.860Z,98316.09
2023-01-18T07:35:25.362Z,98320.47
2023-01-18T07:38:27.569Z,98322.78
2023-01-18T07:41:31.017Z,98323.63
2023-01-18T07:44:32.683Z,98331.31
2023-01-18T07:47:35.633Z,98331.13
2023-01-18T07:50:37.146Z,98329.03
2023-01-18T07:53:39.501Z,98330.72
2023-01-18T07:56:41.024Z,98340.72
2023-01-18T07:59:42.519Z,98342.56
2023-01-18T08:02:44.254Z,98351.53
2023-01-18T08:05:47.320Z,98352.56
2023-01-18T08:08:48.798Z,98355.25
2023-01-18T08:11:50.304Z,98362.34
2023-01-18T08:14:51.756Z,98364.00
2023-01-18T08:17:55.334Z,98358.59
2023-01-18T08:20:56.909Z,98360.94
2023-01-18T08:23:58.407Z,98361.75
2023-01-18T08:26:59.906Z,98369.50
2023-01-18T08:30:01.376Z,98374.69
2023-01-18T08:33:03.358Z,98373.44
2023-01-18T08:36:05.216Z,98378.69
2023-01-18T08:39:06.886Z,98378.50
2023-01-18T08:42:11.930Z,98383.47
2023-01-18T08:45:14.170Z,98388.06
2023-01-18T08:48:15.650Z,98389.72
2023-01-18T08:51:18.370Z,98391.59
2023-01-18T08:54:19.949Z,98397.84
2023-01-18T08:57:21.447Z,98396.81
2023-01-18T09:00:23.987Z,98406.81
2023-01-18T09:03:27.104Z,98407.44
2023-01-18T09:06:33.711Z,98409.09
2023-01-18T09:09:35.075Z,98419.53
2023-01-18T09:12:36.649Z,98421.63
2023-01-18T09:15:38.744Z,98425.16
2023-01-18T09:18:40.274Z,98433.09
2023-01-18T09:21:42.183Z,98439.09
2023-01-18T09:24:43.735Z,98438.09
2023-01-18T09:27:46.536Z,98440.56
2023-01-18T09:30:47.981Z,98431.63
2023-01-18T09:33:53.717Z,98440.56
2023-01-18T09:36:55.772Z,98449.56
2023-01-18T09:39:57.269Z,98449.56
2023-01-18T09:42:59.145Z,98455.81
2023-01-18T09:46:01.951Z,98453.91
2023-01-18T09:49:06.829Z,98460.38
2023-01-18T09:52:34.521Z,98451.22
2023-01-18T09:55:44.860Z,98454.09
2023-01-18T09:59:13.112Z,98453.91
2023-01-18T10:02:24.802Z,98465.59
2023-01-18T10:05:37.289Z,98468.28
2023-01-18T10:09:05.075Z,98464.94
2023-01-18T10:12:23.750Z,98476.63
2023-01-18T10:15:31.839Z,98473.06
2023-01-18T10:18:39.129Z,98466.19
2023-01-18T10:22:06.929Z,98466.63
2023-01-18T10:25:24.132Z,98468.50
2023-01-18T10:28:32.987Z,98473.94
2023-01-18T10:32:04.934Z,98477.66
2023-01-18T10:35:19.463Z,98484.94
2023-01-18T10:38:25.458Z,98478.88
2023-01-18T10:41:34.983Z,98472.78
2023-01-18T10:44:36.981Z,98477.78
2023-01-18T10:47:38.458Z,98483.22
2023-01-18T10:50:43.737Z,98489.13
2023-01-18T10:53:45.265Z,98500.41
2023-01-18T10:56:46.787Z,98494.88
2023-01-18T10:59:52.648Z,98491.47
2023-01-18T11:02:55.778Z,98493.16
2023-01-18T11:06:06.872Z,98493.66
2023-01-18T11:09:42.062Z,98495.72
2023-01-18T11:12:47.755Z,98498.25
2023-01-18T11:16:02.609Z,98499.06
2023-01-18T11:19:15.932Z,98503.16
2023-01-18T11:22:17.515Z,98502.28
2023-01-18T11:25:19.143Z,98497.19
2023-01-18T11:28:24.369Z,98502.88
2023-01-18T11:31:31.360Z,98508.78
2023-01-18T11:34:37.130Z,98505.31
2023-01-18T11:37:43.590Z,98501.81
2023-01-18T11:40:45.688Z,98505.81
2023-01-18T11:43:53.490Z,98506.88
2023-01-18T11:46:59.045Z,98501.91
2023-01-18T11:50:22.437Z,98513.81
2023-01-18T11:53:46.888Z,98506.31
2023-01-18T11:56:52.004Z,98513.44
2023-01-18T11:59:54.654Z,98510.72
2023-01-18T12:03:21.074Z,98523.03
2023-01-18T12:06:54.600Z,98515.53
2023-01-18T12:09:57.909Z,98515.34
2023-01-18T12:13:24.354Z,98523.03
2023-01-18T12:16:28.811Z,98517.63
2023-01-18T12:19:36.099Z,98522.66
2023-01-18T12:22:46.801Z,98522.47
2023-01-18T12:26:12.155Z,98528.91
2023-01-18T12:29:24.161Z,98529.75
2023-01-18T12:32:37.736Z,98531.81
2023-01-18T12:36:01.414Z,98537.88
2023-01-18T12:39:19.151Z,98528.06
2023-01-18T12:42:44.569Z,98538.69
2023-01-18T12:45:57.180Z,98538.88
2023-01-18T12:49:04.459Z,98531.81
2023-01-18T12:52:18.466Z,98538.28
2023-01-18T12:55:23.634Z,98536.41
2023-01-18T12:58:26.829Z,98542.00
2023-01-18T13:01:34.587Z,98546.56
2023-01-18T13:04:44.841Z,98540.97
2023-01-18T13:08:04.471Z,98551.81
2023-01-18T13:11:07.604Z,98550.75
2023-01-18T13:14:17.333Z,98547.88
2023-01-18T13:17:41.382Z,98547.69
2023-01-18T13:21:03.592Z,98563.91
2023-01-18T13:24:14.049Z,98566.63
2023-01-18T13:27:17.598Z,98568.31
2023-01-18T13:30:19.716Z,98571.19
2023-01-18T13:33:23.973Z,98574.75
2023-01-18T13:36:25.589Z,98579.28
2023-01-18T13:39:28.125Z,98591.16
2023-01-18T13:42:38.741Z,98588.47
2023-01-18T13:46:02.581Z,98587.59
2023-01-18T13:49:45.014Z,98588.00
2023-01-18T13:52:46.491Z,98586.75
2023-01-18T13:56:00.198Z,98594.66
2023-01-18T13:59:15.583Z,98593.38
2023-01-18T14:02:21.688Z,98610.22
2023-01-18T14:05:30.858Z,98607.53
2023-01-18T14:08:34.223Z,98617.75
2023-01-18T14:11:41.603Z,98612.09
2023-01-18T14:14:56.804Z,98611.72
2023-01-18T14:17:59.406Z,98614.63
2023-01-18T14:21:11.275Z,98612.56
2023-01-18T14:24:21.748Z,98608.63
2023-01-18T14:27:27.085Z,98614.88
2023-01-18T14:30:35.319Z,98611.97
2023-01-18T14:33:39.536Z,98609.25
2023-01-18T14:36:41.021Z,98624.66
2023-01-18T14:39:42.473Z,98621.94
2023-01-18T14:43:05.702Z,98631.59
2023-01-18T14:46:12.460Z,98637.81
2023-01-18T14:49:18.226Z,98638.84
2023-01-18T14:52:23.064Z,98641.53
2023-01-18T14:55:33.658Z,98640.53
2023-01-18T14:58:38.860Z,98639.69
2023-01-18T15:01:40.584Z,98639.69
2023-01-18T15:04:45.541Z,98643.88
2023-01-18T15:07:55.726Z,98655.38
2023-01-18T15:10:58.214Z,98656.00
2023-01-18T15:14:00.137Z,98655.81
2023-01-18T15:17:06.426Z,98668.31
2023-01-18T15:20:14.548Z,98670.63
2023-01-18T15:23:16.945Z,98671.66
2023-01-18T15:26:33.579Z,98681.28
2023-01-18T15:29:36.254Z,98683.97
2023-01-18T15:32:37.872Z,98690.41
2023-01-18T15:35:39.664Z,98693.13
2023-01-18T15:38:41.257Z,98700.22
2023-01-18T15:41:43.919Z,98702.72
2023-01-18T15:44:52.646Z,98705.88
2023-01-18T15:48:00.804Z,98707.38
2023-01-18T15:51:09.154Z,98712.38
2023-01-18T15:54:19.453Z,98712.19
2023-01-18T15:57:22.712Z,98717.41
2023-01-18T16:00:33.487Z,98720.56
2023-01-18T16:03:55.050Z,98725.59
2023-01-18T16:06:56.707Z,98729.97
2023-01-18T16:10:16.828Z,98730.44
2023-01-18T16:13:35.872Z,98734.63
2023-01-18T16:16:40.940Z,98737.94
2023-01-18T16:19:46.560Z,98741.28
2023-01-18T16:22:54.816Z,98742.59
2023-01-18T16:26:04.694Z,98742.00
2023-01-18T16:29:08.213Z,98751.22
2023-01-18T16:32:36.384Z,98748.94
2023-01-18T16:35:39.784Z,98752.28
2023-01-18T16:38:41.343Z,98753.38
2023-01-18T16:41:48.817Z,98753.81
2023-01-18T16:44:52.560Z,98756.66
2023-01-18T16:47:54.441Z,98759.03
2023-01-18T16:50:59.363Z,98753.56
2023-01-18T16:54:02.132Z,98768.13
2023-01-18T16:57:04.617Z,98772.31
2023-01-18T17:00:28.271Z,98778.19
2023-01-18T17:03:29.751Z,98786.13
2023-01-18T17:06:33.204Z,98787.59
2023-01-18T17:09:40.376Z,98783.47
2023-01-18T17:12:49.004Z,98787.44
2023-01-18T17:15:52.268Z,98791.44
2023-01-18T17:18:53.793Z,98786.47
2023-01-18T17:21:55.268Z,98786.09
2023-01-18T17:24:56.714Z,98791.13
2023-01-18T17:27:58.480Z,98795.31
2023-01-18T17:31:00.390Z,98796.78
2023-01-18T17:34:02.165Z,98805.56
2023-01-18T17:37:03.650Z,98805.16
2023-01-18T17:40:22.687Z,98811.22
2023-01-18T17:43:33.981Z,98819.13
2023-01-18T17:46:36.328Z,98828.09
2023-01-18T17:49:37.905Z,98819.78
2023-01-18T17:52:40.304Z,98824.16
2023-01-18T17:55:41.855Z,98814.78
2023-01-18T17:58:47.855Z,98821.09
2023-01-18T18:01:49.490Z,98825.63
2023-01-18T18:04:51.249Z,98825.63
2023-01-18T18:07:52.742Z,98837.97
2023-01-18T18:10:55.321Z,98835.91
2023-01-18T18:13:58.771Z,98836.53
2023-01-18T18:17:01.820Z,98843.63
2023-01-18T18:20:04.227Z,98860.75
2023-01-18T18:23:05.742Z,98854.28
2023-01-18T18:26:07.418Z,98857.84
2023-01-18T18:29:09.820Z,98862.03
2023-01-18T18:32:12.778Z,98854.53
2023-01-18T18:35:25.123Z,98860.78
2023-01-18T18:38:27.276Z,98868.56
2023-01-18T18:41:28.798Z,98854.81
2023-01-18T18:44:30.290Z,98869.19
2023-01-18T18:47:32.168Z,98867.31
2023-01-18T18:50:34.327Z,98869.19
2023-01-18T18:53:39.918Z,98865.47
2023-01-18T18:56:42.928Z,98869.84
2023-01-18T18:59:44.431Z,98877.97
2023-01-18T19:02:46.187Z,98884.88
2023-01-18T19:05:47.698Z,98883.00
2023-01-18T19:08:49.851Z,98878.41
2023-01-18T19:11:55.449Z,98880.28
2023-01-18T19:14:57.083Z,98881.78
2023-01-18T19:17:58.819Z,98879.88
2023-01-18T19:21:00.451Z,98879.88
2023-01-18T19:24:02.762Z,98880.94
2023-01-18T19:27:04.733Z,98887.84
2023-01-18T19:30:12.737Z,98886.59
2023-01-18T19:33:14.328Z,98869.09
2023-01-18T19:36:16.238Z,98879.94
2023-01-18T19:39:22.321Z,98882.66
2023-01-18T19:42:24.311Z,98888.50
2023-01-18T19:45:28.596Z,98878.91
2023-01-18T19:48:30.302Z,98883.31
2023-01-18T19:51:32.038Z,98883.09
2023-01-18T19:54:33.525Z,98883.09
2023-01-18T19:57:35.060Z,98889.16
2023-01-18T20:00:36.531Z,98878.31
2023-01-18T20:03:38.366Z,98874.59
2023-01-18T20:06:40.746Z,98869.16
2023-01-18T20:09:45.396Z,98861.84
2023-01-18T20:12:48.536Z,98873.72
2023-01-18T20:15:53.930Z,98881.84
2023-01-18T20:18:55.732Z,98883.97
2023-01-18T20:21:57.221Z,98882.47
2023-01-18T20:24:59.027Z,98881.84
2023-01-18T20:28:00.942Z,98885.56
2023-01-18T20:31:06.140Z,98883.91
2023-01-18T20:34:07.713Z,98894.94
2023-01-18T20:37:09.920Z,98910.59
2023-01-18T20:40:11.880Z,98915.16
2023-01-18T20:43:13.414Z,98913.47
2023-01-18T20:46:14.968Z,98919.94
2023-01-18T20:49:17.063Z,98917.25
2023-01-18T20:52:19.374Z,98913.66
2023-01-18T20:55:21.601Z,98912.66
2023-01-18T20:58:23.101Z,98919.09
2023-01-18T21:01:31.303Z,98923.69
2023-01-18T21:04:32.912Z,98929.09
2023-01-18T21:07:34.930Z,98919.31
2023-01-18T21:10:39.043Z,98919.31
2023-01-18T21:13:40.527Z,98920.31
2023-01-18T21:16:42.781Z,98914.91
2023-01-18T21:19:45.932Z,98911.34
2023-01-18T21:22:47.474Z,98909.47
2023-01-18T21:25:50.627Z,98920.31
2023-01-18T21:28:52.297Z,98913.22
2023-01-18T21:31:53.914Z,98917.00
2023-01-18T21:34:55.484Z,98917.00
2023-01-18T21:37:59.738Z,98909.88
2023-01-18T21:41:21.751Z,98906.50
2023-01-18T21:44:41.865Z,98908.41
2023-01-18T21:47:43.334Z,98916.53
2023-01-18T21:51:03.437Z,98916.53
2023-01-18T21:54:16.831Z,98911.28
2023-01-18T21:57:19.543Z,98921.47
2023-01-18T22:00:21.373Z,98926.06
2023-01-18T22:03:22.865Z,98926.06
2023-01-18T22:06:24.338Z,98933.75
2023-01-18T22:09:27.960Z,98934.78
2023-01-18T22:12:29.429Z,98938.72
2023-01-18T22:15:30.904Z,98940.13
2023-01-18T22:18:32.472Z,98933.88
2023-01-18T22:21:34.533Z,98931.19
2023-01-18T22:24:36.400Z,98928.47
2023-01-18T22:27:37.916Z,98937.66
2023-01-18T22:30:39.463Z,98930.75
2023-01-18T22:33:41.242Z,98941.75
2023-01-18T22:36:42.693Z,98933.81
2023-01-18T22:39:44.179Z,98923.38
2023-01-18T22:42:45.697Z,98923.75
2023-01-18T22:45:54.864Z,98924.81
2023-01-18T22:48:57.602Z,98918.25
2023-01-18T22:52:01.183Z,98923.06
2023-01-18T22:55:02.650Z,98933.25
2023-01-18T22:58:04.119Z,98933.66
2023-01-18T23:01:15.499Z,98929.25
2023-01-18T23:04:17.143Z,98940.47
2023-01-18T23:07:18.664Z,98943.34
2023-01-18T23:10:20.222Z,98939.81
2023-01-18T23:13:21.721Z,98943.56
2023-01-18T23:16:41.877Z,98942.91
2023-01-18T23:19:43.396Z,98937.50
2023-01-18T23:22:45.687Z,98940.38
2023-01-18T23:25:47.159Z,98953.31
2023-01-18T23:28:48.746Z,98947.03
2023-01-18T23:31:50.240Z,98944.53
2023-01-18T23:34:52.592Z,98942.84
2023-01-18T23:37:54.363Z,98945.94
2023-01-18T23:41:15.059Z,98946.16
2023-01-18T23:44:34.992Z,98946.31
2023-01-18T23:47:55.742Z,98944.84
2023-01-18T23:51:15.484Z,98940.63
2023-01-18T23:54:17.705Z,98947.28
2023-01-18T23:57:19.190Z,98958.28
